sensor_id;sensor_type;location;lat;lon;timestamp;P1;durP1;ratioP1;P2;durP2;ratioP2
18048;SDS011;9149;47.002;8.604;2023-09-19T00:01:42;1.35;;;0.70;;
18048;SDS011;9149;47.002;8.604;2023-09-19T00:04:11;2.42;;;0.77;;
18048;SDS011;9149;47.002;8.604;2023-09-19T00:06:39;0.80;;;0.80;;
18048;SDS011;9149;47.002;8.604;2023-09-19T00:09:07;1.65;;;0.80;;
18048;SDS011;9149;47.002;8.604;2023-09-19T00:11:37;0.90;;;0.63;;
18048;SDS011;9149;47.002;8.604;2023-09-19T00:14:04;1.27;;;0.90;;
18048;SDS011;9149;47.002;8.604;2023-09-19T00:16:35;1.05;;;0.88;;
18048;SDS011;9149;47.002;8.604;2023-09-19T00:19:04;0.98;;;0.80;;
18048;SDS011;9149;47.002;8.604;2023-09-19T00:21:35;1.10;;;0.77;;
18048;SDS011;9149;47.002;8.604;2023-09-19T00:24:04;1.85;;;0.80;;
18048;SDS011;9149;47.002;8.604;2023-09-19T00:26:32;1.25;;;0.88;;
18048;SDS011;9149;47.002;8.604;2023-09-19T00:29:00;1.48;;;0.80;;
18048;SDS011;9149;47.002;8.604;2023-09-19T00:31:34;1.80;;;0.88;;
18048;SDS011;9149;47.002;8.604;2023-09-19T00:34:05;0.80;;;0.77;;
18048;SDS011;9149;47.002;8.604;2023-09-19T00:36:33;0.85;;;0.70;;
18048;SDS011;9149;47.002;8.604;2023-09-19T00:39:01;1.02;;;0.75;;
18048;SDS011;9149;47.002;8.604;2023-09-19T00:41:29;0.70;;;0.70;;
18048;SDS011;9149;47.002;8.604;2023-09-19T00:43:57;1.33;;;0.75;;
18048;SDS011;9149;47.002;8.604;2023-09-19T00:46:25;1.88;;;0.95;;
18048;SDS011;9149;47.002;8.604;2023-09-19T00:51:43;1.73;;;0.80;;
18048;SDS011;9149;47.002;8.604;2023-09-19T00:54:13;5.63;;;0.80;;
18048;SDS011;9149;47.002;8.604;2023-09-19T00:56:45;1.50;;;1.00;;
18048;SDS011;9149;47.002;8.604;2023-09-19T00:59:13;3.28;;;1.10;;
18048;SDS011;9149;47.002;8.604;2023-09-19T01:01:40;2.65;;;0.90;;
18048;SDS011;9149;47.002;8.604;2023-09-19T01:04:08;1.25;;;0.90;;
18048;SDS011;9149;47.002;8.604;2023-09-19T01:06:36;1.33;;;0.90;;
18048;SDS011;9149;47.002;8.604;2023-09-19T01:09:07;1.30;;;0.90;;
18048;SDS011;9149;47.002;8.604;2023-09-19T01:11:35;1.25;;;0.90;;
18048;SDS011;9149;47.002;8.604;2023-09-19T01:14:09;2.05;;;0.90;;
18048;SDS011;9149;47.002;8.604;2023-09-19T01:16:40;3.22;;;1.00;;
18048;SDS011;9149;47.002;8.604;2023-09-19T01:19:19;4.13;;;1.05;;
18048;SDS011;9149;47.002;8.604;2023-09-19T01:21:53;2.95;;;0.98;;
18048;SDS011;9149;47.002;8.604;2023-09-19T01:24:30;1.85;;;0.90;;
18048;SDS011;9149;47.002;8.604;2023-09-19T01:27:17;1.05;;;0.80;;
18048;SDS011;9149;47.002;8.604;2023-09-19T01:29:45;2.42;;;1.00;;
18048;SDS011;9149;47.002;8.604;2023-09-19T01:32:15;1.50;;;0.88;;
18048;SDS011;9149;47.002;8.604;2023-09-19T01:34:44;0.73;;;0.70;;
18048;SDS011;9149;47.002;8.604;2023-09-19T01:37:13;3.92;;;1.20;;
18048;SDS011;9149;47.002;8.604;2023-09-19T01:39:45;1.45;;;0.85;;
18048;SDS011;9149;47.002;8.604;2023-09-19T01:42:18;1.73;;;1.10;;
18048;SDS011;9149;47.002;8.604;2023-09-19T01:44:51;5.00;;;1.00;;
18048;SDS011;9149;47.002;8.604;2023-09-19T01:47:26;0.95;;;0.75;;
18048;SDS011;9149;47.002;8.604;2023-09-19T01:49:56;1.67;;;0.90;;
18048;SDS011;9149;47.002;8.604;2023-09-19T01:52:28;3.47;;;0.90;;
18048;SDS011;9149;47.002;8.604;2023-09-19T01:54:59;1.15;;;1.00;;
18048;SDS011;9149;47.002;8.604;2023-09-19T01:57:32;4.20;;;1.08;;
18048;SDS011;9149;47.002;8.604;2023-09-19T02:00:03;0.95;;;0.75;;
18048;SDS011;9149;47.002;8.604;2023-09-19T02:02:42;1.30;;;0.70;;
18048;SDS011;9149;47.002;8.604;2023-09-19T02:05:11;4.22;;;0.80;;
18048;SDS011;9149;47.002;8.604;2023-09-19T02:07:39;0.85;;;0.70;;
18048;SDS011;9149;47.002;8.604;2023-09-19T02:10:25;1.48;;;0.75;;
18048;SDS011;9149;47.002;8.604;2023-09-19T02:12:53;0.80;;;0.63;;
18048;SDS011;9149;47.002;8.604;2023-09-19T02:15:21;2.53;;;0.68;;
18048;SDS011;9149;47.002;8.604;2023-09-19T02:17:50;1.10;;;0.63;;
18048;SDS011;9149;47.002;8.604;2023-09-19T02:20:18;1.17;;;0.60;;
18048;SDS011;9149;47.002;8.604;2023-09-19T02:22:47;1.15;;;0.73;;
18048;SDS011;9149;47.002;8.604;2023-09-19T02:25:17;2.95;;;0.90;;
18048;SDS011;9149;47.002;8.604;2023-09-19T02:27:46;1.38;;;0.70;;
18048;SDS011;9149;47.002;8.604;2023-09-19T02:30:13;1.08;;;0.70;;
18048;SDS011;9149;47.002;8.604;2023-09-19T02:32:42;0.75;;;0.70;;
18048;SDS011;9149;47.002;8.604;2023-09-19T02:35:11;0.60;;;0.60;;
18048;SDS011;9149;47.002;8.604;2023-09-19T02:37:41;2.47;;;0.70;;
18048;SDS011;9149;47.002;8.604;2023-09-19T02:40:08;1.35;;;0.70;;
18048;SDS011;9149;47.002;8.604;2023-09-19T02:42:46;5.03;;;0.60;;
18048;SDS011;9149;47.002;8.604;2023-09-19T02:45:15;0.85;;;0.80;;
18048;SDS011;9149;47.002;8.604;2023-09-19T02:47:44;0.82;;;0.70;;
18048;SDS011;9149;47.002;8.604;2023-09-19T02:50:15;1.10;;;0.73;;
18048;SDS011;9149;47.002;8.604;2023-09-19T02:52:44;1.02;;;0.50;;
18048;SDS011;9149;47.002;8.604;2023-09-19T02:55:14;2.20;;;0.90;;
18048;SDS011;9149;47.002;8.604;2023-09-19T02:57:45;0.65;;;0.55;;
18048;SDS011;9149;47.002;8.604;2023-09-19T03:00:14;4.28;;;1.13;;
18048;SDS011;9149;47.002;8.604;2023-09-19T03:02:43;0.98;;;0.80;;
18048;SDS011;9149;47.002;8.604;2023-09-19T03:05:11;2.05;;;0.90;;
18048;SDS011;9149;47.002;8.604;2023-09-19T03:07:41;2.03;;;1.08;;
18048;SDS011;9149;47.002;8.604;2023-09-19T03:10:09;2.67;;;1.08;;
18048;SDS011;9149;47.002;8.604;2023-09-19T03:12:37;4.18;;;1.00;;
18048;SDS011;9149;47.002;8.604;2023-09-19T03:15:06;1.38;;;1.00;;
18048;SDS011;9149;47.002;8.604;2023-09-19T03:17:36;3.20;;;1.13;;
18048;SDS011;9149;47.002;8.604;2023-09-19T03:20:04;3.38;;;1.08;;
18048;SDS011;9149;47.002;8.604;2023-09-19T03:22:35;1.77;;;0.90;;
18048;SDS011;9149;47.002;8.604;2023-09-19T03:25:05;5.53;;;1.23;;
18048;SDS011;9149;47.002;8.604;2023-09-19T03:27:35;2.72;;;0.80;;
18048;SDS011;9149;47.002;8.604;2023-09-19T03:30:04;1.05;;;0.70;;
18048;SDS011;9149;47.002;8.604;2023-09-19T03:32:36;1.52;;;0.95;;
18048;SDS011;9149;47.002;8.604;2023-09-19T03:35:04;1.13;;;0.75;;
18048;SDS011;9149;47.002;8.604;2023-09-19T03:37:33;0.98;;;0.80;;
18048;SDS011;9149;47.002;8.604;2023-09-19T03:40:02;1.13;;;0.82;;
18048;SDS011;9149;47.002;8.604;2023-09-19T03:42:33;1.45;;;0.93;;
18048;SDS011;9149;47.002;8.604;2023-09-19T03:45:02;0.85;;;0.80;;
18048;SDS011;9149;47.002;8.604;2023-09-19T03:47:30;1.50;;;0.90;;
18048;SDS011;9149;47.002;8.604;2023-09-19T03:50:00;1.13;;;0.80;;
18048;SDS011;9149;47.002;8.604;2023-09-19T03:52:27;2.58;;;1.05;;
18048;SDS011;9149;47.002;8.604;2023-09-19T03:54:55;2.08;;;1.10;;
18048;SDS011;9149;47.002;8.604;2023-09-19T03:57:24;4.35;;;1.05;;
18048;SDS011;9149;47.002;8.604;2023-09-19T03:59:53;3.47;;;1.00;;
18048;SDS011;9149;47.002;8.604;2023-09-19T04:02:22;1.20;;;0.93;;
18048;SDS011;9149;47.002;8.604;2023-09-19T04:04:51;0.70;;;0.70;;
18048;SDS011;9149;47.002;8.604;2023-09-19T04:07:19;1.23;;;0.70;;
18048;SDS011;9149;47.002;8.604;2023-09-19T04:09:49;7.57;;;1.00;;
18048;SDS011;9149;47.002;8.604;2023-09-19T04:12:19;1.17;;;0.90;;
18048;SDS011;9149;47.002;8.604;2023-09-19T04:14:46;3.97;;;1.05;;
18048;SDS011;9149;47.002;8.604;2023-09-19T04:17:16;2.03;;;1.25;;
18048;SDS011;9149;47.002;8.604;2023-09-19T04:19:45;4.68;;;1.42;;
18048;SDS011;9149;47.002;8.604;2023-09-19T04:22:13;1.85;;;1.20;;
18048;SDS011;9149;47.002;8.604;2023-09-19T04:24:40;1.15;;;0.95;;
18048;SDS011;9149;47.002;8.604;2023-09-19T04:27:08;1.30;;;1.10;;
18048;SDS011;9149;47.002;8.604;2023-09-19T04:29:36;2.08;;;1.00;;
18048;SDS011;9149;47.002;8.604;2023-09-19T04:32:04;2.72;;;1.00;;
18048;SDS011;9149;47.002;8.604;2023-09-19T04:34:33;2.45;;;1.13;;
18048;SDS011;9149;47.002;8.604;2023-09-19T04:37:01;1.92;;;0.90;;
18048;SDS011;9149;47.002;8.604;2023-09-19T04:39:30;2.53;;;1.08;;
18048;SDS011;9149;47.002;8.604;2023-09-19T04:41:58;2.75;;;1.00;;
18048;SDS011;9149;47.002;8.604;2023-09-19T04:44:26;1.13;;;0.90;;
18048;SDS011;9149;47.002;8.604;2023-09-19T04:46:54;2.28;;;0.70;;
18048;SDS011;9149;47.002;8.604;2023-09-19T04:49:22;1.25;;;0.90;;
18048;SDS011;9149;47.002;8.604;2023-09-19T04:51:51;1.10;;;0.77;;
18048;SDS011;9149;47.002;8.604;2023-09-19T04:54:19;3.35;;;0.95;;
18048;SDS011;9149;47.002;8.604;2023-09-19T04:56:46;1.25;;;0.80;;
18048;SDS011;9149;47.002;8.604;2023-09-19T04:59:14;1.10;;;0.80;;
18048;SDS011;9149;47.002;8.604;2023-09-19T05:01:42;1.30;;;1.00;;
18048;SDS011;9149;47.002;8.604;2023-09-19T05:04:10;1.50;;;1.08;;
18048;SDS011;9149;47.002;8.604;2023-09-19T05:06:38;2.08;;;1.10;;
18048;SDS011;9149;47.002;8.604;2023-09-19T05:09:07;3.30;;;0.90;;
18048;SDS011;9149;47.002;8.604;2023-09-19T05:11:35;2.00;;;1.10;;
18048;SDS011;9149;47.002;8.604;2023-09-19T05:14:04;1.60;;;1.00;;
18048;SDS011;9149;47.002;8.604;2023-09-19T05:16:32;0.70;;;0.70;;
18048;SDS011;9149;47.002;8.604;2023-09-19T05:19:00;0.93;;;0.73;;
18048;SDS011;9149;47.002;8.604;2023-09-19T05:21:28;0.60;;;0.60;;
18048;SDS011;9149;47.002;8.604;2023-09-19T05:23:56;0.80;;;0.80;;
18048;SDS011;9149;47.002;8.604;2023-09-19T05:26:25;1.58;;;0.80;;
18048;SDS011;9149;47.002;8.604;2023-09-19T05:28:53;1.38;;;0.80;;
18048;SDS011;9149;47.002;8.604;2023-09-19T05:31:39;0.80;;;0.70;;
18048;SDS011;9149;47.002;8.604;2023-09-19T05:34:09;1.33;;;0.70;;
18048;SDS011;9149;47.002;8.604;2023-09-19T05:36:37;1.00;;;0.90;;
18048;SDS011;9149;47.002;8.604;2023-09-19T05:39:06;1.30;;;0.98;;
18048;SDS011;9149;47.002;8.604;2023-09-19T05:41:37;5.00;;;0.90;;
18048;SDS011;9149;47.002;8.604;2023-09-19T05:44:06;1.42;;;1.02;;
18048;SDS011;9149;47.002;8.604;2023-09-19T05:46:34;0.73;;;0.70;;
18048;SDS011;9149;47.002;8.604;2023-09-19T05:49:02;1.30;;;0.70;;
18048;SDS011;9149;47.002;8.604;2023-09-19T05:51:30;6.88;;;1.05;;
18048;SDS011;9149;47.002;8.604;2023-09-19T05:53:57;1.17;;;0.70;;
18048;SDS011;9149;47.002;8.604;2023-09-19T05:56:25;1.40;;;0.95;;
18048;SDS011;9149;47.002;8.604;2023-09-19T05:58:54;3.22;;;1.05;;
18048;SDS011;9149;47.002;8.604;2023-09-19T06:01:22;2.78;;;0.70;;
18048;SDS011;9149;47.002;8.604;2023-09-19T06:03:50;3.78;;;1.00;;
18048;SDS011;9149;47.002;8.604;2023-09-19T06:06:19;1.33;;;0.98;;
18048;SDS011;9149;47.002;8.604;2023-09-19T06:08:47;3.72;;;0.88;;
18048;SDS011;9149;47.002;8.604;2023-09-19T06:11:16;2.08;;;0.98;;
18048;SDS011;9149;47.002;8.604;2023-09-19T06:13:46;1.05;;;0.77;;
18048;SDS011;9149;47.002;8.604;2023-09-19T06:16:16;3.28;;;0.95;;
18048;SDS011;9149;47.002;8.604;2023-09-19T06:18:46;2.83;;;0.93;;
18048;SDS011;9149;47.002;8.604;2023-09-19T06:21:17;1.25;;;0.80;;
18048;SDS011;9149;47.002;8.604;2023-09-19T06:23:45;1.00;;;0.77;;
18048;SDS011;9149;47.002;8.604;2023-09-19T06:26:12;1.95;;;1.13;;
18048;SDS011;9149;47.002;8.604;2023-09-19T06:28:40;2.30;;;0.90;;
18048;SDS011;9149;47.002;8.604;2023-09-19T06:31:09;2.17;;;0.77;;
18048;SDS011;9149;47.002;8.604;2023-09-19T06:33:38;1.73;;;0.82;;
18048;SDS011;9149;47.002;8.604;2023-09-19T06:36:06;1.02;;;0.77;;
18048;SDS011;9149;47.002;8.604;2023-09-19T06:38:34;5.50;;;1.13;;
18048;SDS011;9149;47.002;8.604;2023-09-19T06:41:02;1.05;;;0.85;;
18048;SDS011;9149;47.002;8.604;2023-09-19T06:43:31;1.98;;;0.90;;
18048;SDS011;9149;47.002;8.604;2023-09-19T06:45:59;2.55;;;1.00;;
18048;SDS011;9149;47.002;8.604;2023-09-19T06:48:27;1.67;;;1.00;;
18048;SDS011;9149;47.002;8.604;2023-09-19T06:50:57;2.75;;;0.98;;
18048;SDS011;9149;47.002;8.604;2023-09-19T06:53:31;1.60;;;0.88;;
18048;SDS011;9149;47.002;8.604;2023-09-19T06:55:59;0.90;;;0.80;;
18048;SDS011;9149;47.002;8.604;2023-09-19T06:58:27;0.93;;;0.80;;
18048;SDS011;9149;47.002;8.604;2023-09-19T07:00:54;3.65;;;1.00;;
18048;SDS011;9149;47.002;8.604;2023-09-19T07:03:23;1.10;;;0.90;;
18048;SDS011;9149;47.002;8.604;2023-09-19T07:05:53;5.45;;;1.02;;
18048;SDS011;9149;47.002;8.604;2023-09-19T07:08:23;2.78;;;0.90;;
18048;SDS011;9149;47.002;8.604;2023-09-19T07:10:51;3.72;;;1.00;;
18048;SDS011;9149;47.002;8.604;2023-09-19T07:13:20;1.48;;;0.82;;
18048;SDS011;9149;47.002;8.604;2023-09-19T07:15:48;1.15;;;0.90;;
18048;SDS011;9149;47.002;8.604;2023-09-19T07:18:17;1.77;;;1.00;;
18048;SDS011;9149;47.002;8.604;2023-09-19T07:20:45;5.00;;;1.33;;
18048;SDS011;9149;47.002;8.604;2023-09-19T07:23:16;2.35;;;0.90;;
18048;SDS011;9149;47.002;8.604;2023-09-19T07:25:45;1.05;;;0.90;;
18048;SDS011;9149;47.002;8.604;2023-09-19T07:28:14;1.70;;;0.90;;
18048;SDS011;9149;47.002;8.604;2023-09-19T07:30:41;1.48;;;0.90;;
18048;SDS011;9149;47.002;8.604;2023-09-19T07:33:09;1.25;;;0.80;;
18048;SDS011;9149;47.002;8.604;2023-09-19T07:35:38;2.85;;;1.30;;
18048;SDS011;9149;47.002;8.604;2023-09-19T07:38:07;1.98;;;1.05;;
18048;SDS011;9149;47.002;8.604;2023-09-19T07:40:35;1.13;;;1.02;;
18048;SDS011;9149;47.002;8.604;2023-09-19T07:45:50;1.42;;;1.00;;
18048;SDS011;9149;47.002;8.604;2023-09-19T07:48:18;0.90;;;0.80;;
18048;SDS011;9149;47.002;8.604;2023-09-19T07:50:46;2.10;;;0.80;;
18048;SDS011;9149;47.002;8.604;2023-09-19T07:53:14;1.33;;;0.80;;
18048;SDS011;9149;47.002;8.604;2023-09-19T07:55:44;1.10;;;0.70;;
18048;SDS011;9149;47.002;8.604;2023-09-19T07:58:14;2.42;;;1.00;;
18048;SDS011;9149;47.002;8.604;2023-09-19T08:00:42;1.67;;;0.77;;
18048;SDS011;9149;47.002;8.604;2023-09-19T08:03:11;1.77;;;0.80;;
18048;SDS011;9149;47.002;8.604;2023-09-19T08:05:43;1.80;;;1.02;;
18048;SDS011;9149;47.002;8.604;2023-09-19T08:08:11;3.05;;;0.82;;
18048;SDS011;9149;47.002;8.604;2023-09-19T08:10:40;1.48;;;0.98;;
18048;SDS011;9149;47.002;8.604;2023-09-19T08:13:10;1.20;;;0.80;;
18048;SDS011;9149;47.002;8.604;2023-09-19T08:15:42;1.30;;;1.00;;
18048;SDS011;9149;47.002;8.604;2023-09-19T08:18:11;1.08;;;0.80;;
18048;SDS011;9149;47.002;8.604;2023-09-19T08:20:39;3.70;;;0.98;;
18048;SDS011;9149;47.002;8.604;2023-09-19T08:23:08;2.05;;;1.02;;
18048;SDS011;9149;47.002;8.604;2023-09-19T08:25:36;2.58;;;1.00;;
18048;SDS011;9149;47.002;8.604;2023-09-19T08:28:05;1.20;;;1.00;;
18048;SDS011;9149;47.002;8.604;2023-09-19T08:30:35;1.58;;;1.10;;
18048;SDS011;9149;47.002;8.604;2023-09-19T08:33:07;1.25;;;0.90;;
18048;SDS011;9149;47.002;8.604;2023-09-19T08:35:36;5.28;;;0.95;;
18048;SDS011;9149;47.002;8.604;2023-09-19T08:38:04;3.78;;;1.10;;
18048;SDS011;9149;47.002;8.604;2023-09-19T08:40:32;2.13;;;0.90;;
18048;SDS011;9149;47.002;8.604;2023-09-19T08:43:06;1.58;;;0.95;;
18048;SDS011;9149;47.002;8.604;2023-09-19T08:45:34;4.82;;;0.80;;
18048;SDS011;9149;47.002;8.604;2023-09-19T08:48:06;1.48;;;0.82;;
18048;SDS011;9149;47.002;8.604;2023-09-19T08:50:39;1.33;;;0.80;;
18048;SDS011;9149;47.002;8.604;2023-09-19T08:53:10;1.20;;;0.65;;
18048;SDS011;9149;47.002;8.604;2023-09-19T08:55:38;3.22;;;0.85;;
18048;SDS011;9149;47.002;8.604;2023-09-19T08:58:09;1.70;;;0.70;;
18048;SDS011;9149;47.002;8.604;2023-09-19T09:00:37;1.52;;;1.02;;
18048;SDS011;9149;47.002;8.604;2023-09-19T09:03:09;7.40;;;0.93;;
18048;SDS011;9149;47.002;8.604;2023-09-19T09:05:38;0.80;;;0.70;;
18048;SDS011;9149;47.002;8.604;2023-09-19T09:08:10;2.08;;;0.90;;
18048;SDS011;9149;47.002;8.604;2023-09-19T09:10:38;4.32;;;1.02;;
18048;SDS011;9149;47.002;8.604;2023-09-19T09:13:07;7.95;;;0.93;;
18048;SDS011;9149;47.002;8.604;2023-09-19T09:15:35;1.75;;;0.95;;
18048;SDS011;9149;47.002;8.604;2023-09-19T09:18:03;5.68;;;1.02;;
18048;SDS011;9149;47.002;8.604;2023-09-19T09:20:32;2.03;;;1.27;;
18048;SDS011;9149;47.002;8.604;2023-09-19T09:23:01;6.10;;;0.95;;
18048;SDS011;9149;47.002;8.604;2023-09-19T09:28:13;3.30;;;0.85;;
18048;SDS011;9149;47.002;8.604;2023-09-19T09:30:46;2.70;;;1.00;;
18048;SDS011;9149;47.002;8.604;2023-09-19T09:33:14;2.20;;;0.93;;
18048;SDS011;9149;47.002;8.604;2023-09-19T09:35:50;1.52;;;0.93;;
18048;SDS011;9149;47.002;8.604;2023-09-19T09:38:21;2.10;;;1.20;;
18048;SDS011;9149;47.002;8.604;2023-09-19T09:40:52;4.45;;;1.40;;
18048;SDS011;9149;47.002;8.604;2023-09-19T09:43:27;2.88;;;1.10;;
18048;SDS011;9149;47.002;8.604;2023-09-19T09:48:56;1.42;;;1.00;;
18048;SDS011;9149;47.002;8.604;2023-09-19T09:51:41;2.03;;;1.17;;
18048;SDS011;9149;47.002;8.604;2023-09-19T09:54:11;1.40;;;0.93;;
18048;SDS011;9149;47.002;8.604;2023-09-19T09:59:18;3.45;;;0.77;;
18048;SDS011;9149;47.002;8.604;2023-09-19T10:01:50;2.22;;;0.70;;
18048;SDS011;9149;47.002;8.604;2023-09-19T10:04:28;1.42;;;0.60;;
18048;SDS011;9149;47.002;8.604;2023-09-19T10:06:58;1.30;;;0.90;;
18048;SDS011;9149;47.002;8.604;2023-09-19T10:09:45;0.60;;;0.50;;
18048;SDS011;9149;47.002;8.604;2023-09-19T10:12:13;1.33;;;0.60;;
18048;SDS011;9149;47.002;8.604;2023-09-19T10:14:43;1.63;;;0.63;;
18048;SDS011;9149;47.002;8.604;2023-09-19T10:17:13;1.10;;;0.52;;
18048;SDS011;9149;47.002;8.604;2023-09-19T10:19:50;1.98;;;0.90;;
18048;SDS011;9149;47.002;8.604;2023-09-19T10:22:23;1.40;;;0.60;;
18048;SDS011;9149;47.002;8.604;2023-09-19T10:24:54;2.22;;;0.70;;
18048;SDS011;9149;47.002;8.604;2023-09-19T10:27:28;0.90;;;0.60;;
18048;SDS011;9149;47.002;8.604;2023-09-19T10:30:04;1.02;;;0.57;;
18048;SDS011;9149;47.002;8.604;2023-09-19T10:32:35;0.52;;;0.50;;
18048;SDS011;9149;47.002;8.604;2023-09-19T10:35:03;1.63;;;0.60;;
18048;SDS011;9149;47.002;8.604;2023-09-19T10:37:33;4.30;;;0.60;;
18048;SDS011;9149;47.002;8.604;2023-09-19T10:40:03;3.20;;;0.57;;
18048;SDS011;9149;47.002;8.604;2023-09-19T10:42:34;0.50;;;0.40;;
18048;SDS011;9149;47.002;8.604;2023-09-19T10:45:05;1.35;;;0.65;;
18048;SDS011;9149;47.002;8.604;2023-09-19T10:47:39;0.85;;;0.60;;
18048;SDS011;9149;47.002;8.604;2023-09-19T10:50:07;0.90;;;0.50;;
18048;SDS011;9149;47.002;8.604;2023-09-19T10:52:39;0.40;;;0.40;;
18048;SDS011;9149;47.002;8.604;2023-09-19T10:55:09;0.80;;;0.32;;
18048;SDS011;9149;47.002;8.604;2023-09-19T10:57:44;0.93;;;0.40;;
18048;SDS011;9149;47.002;8.604;2023-09-19T11:00:13;0.75;;;0.40;;
18048;SDS011;9149;47.002;8.604;2023-09-19T11:05:33;0.30;;;0.30;;
18048;SDS011;9149;47.002;8.604;2023-09-19T11:08:01;0.43;;;0.30;;
18048;SDS011;9149;47.002;8.604;2023-09-19T11:13:24;0.40;;;0.40;;
18048;SDS011;9149;47.002;8.604;2023-09-19T11:16:03;3.53;;;0.57;;
18048;SDS011;9149;47.002;8.604;2023-09-19T11:26:39;0.90;;;0.35;;
18048;SDS011;9149;47.002;8.604;2023-09-19T11:31:53;0.95;;;0.40;;
18048;SDS011;9149;47.002;8.604;2023-09-19T11:37:01;4.85;;;0.38;;
18048;SDS011;9149;47.002;8.604;2023-09-19T11:39:31;0.68;;;0.30;;
18048;SDS011;9149;47.002;8.604;2023-09-19T11:41:59;1.60;;;0.22;;
18048;SDS011;9149;47.002;8.604;2023-09-19T11:44:34;1.38;;;0.30;;
18048;SDS011;9149;47.002;8.604;2023-09-19T11:47:06;0.22;;;0.22;;
18048;SDS011;9149;47.002;8.604;2023-09-19T11:49:33;0.70;;;0.30;;
18048;SDS011;9149;47.002;8.604;2023-09-19T11:52:04;1.17;;;0.40;;
18048;SDS011;9149;47.002;8.604;2023-09-19T11:54:35;0.43;;;0.20;;
18048;SDS011;9149;47.002;8.604;2023-09-19T11:57:06;1.10;;;0.30;;
18048;SDS011;9149;47.002;8.604;2023-09-19T11:59:38;0.80;;;0.30;;
18048;SDS011;9149;47.002;8.604;2023-09-19T12:02:07;1.45;;;0.50;;
18048;SDS011;9149;47.002;8.604;2023-09-19T12:04:37;0.65;;;0.40;;
18048;SDS011;9149;47.002;8.604;2023-09-19T12:07:06;0.35;;;0.25;;
18048;SDS011;9149;47.002;8.604;2023-09-19T12:09:38;0.70;;;0.40;;
18048;SDS011;9149;47.002;8.604;2023-09-19T12:12:06;0.45;;;0.30;;
18048;SDS011;9149;47.002;8.604;2023-09-19T12:14:35;1.00;;;0.30;;
18048;SDS011;9149;47.002;8.604;2023-09-19T12:17:03;0.85;;;0.35;;
18048;SDS011;9149;47.002;8.604;2023-09-19T12:19:32;0.60;;;0.47;;
18048;SDS011;9149;47.002;8.604;2023-09-19T12:22:00;0.93;;;0.50;;
18048;SDS011;9149;47.002;8.604;2023-09-19T12:24:31;0.68;;;0.40;;
18048;SDS011;9149;47.002;8.604;2023-09-19T12:26:59;1.80;;;0.50;;
18048;SDS011;9149;47.002;8.604;2023-09-19T12:29:31;0.30;;;0.30;;
18048;SDS011;9149;47.002;8.604;2023-09-19T12:32:00;0.40;;;0.40;;
18048;SDS011;9149;47.002;8.604;2023-09-19T12:34:33;1.70;;;0.32;;
18048;SDS011;9149;47.002;8.604;2023-09-19T12:37:03;0.32;;;0.25;;
18048;SDS011;9149;47.002;8.604;2023-09-19T12:39:32;0.68;;;0.30;;
18048;SDS011;9149;47.002;8.604;2023-09-19T12:42:01;0.93;;;0.40;;
18048;SDS011;9149;47.002;8.604;2023-09-19T12:44:30;0.52;;;0.40;;
18048;SDS011;9149;47.002;8.604;2023-09-19T12:47:07;0.60;;;0.30;;
18048;SDS011;9149;47.002;8.604;2023-09-19T12:49:41;0.55;;;0.35;;
18048;SDS011;9149;47.002;8.604;2023-09-19T12:52:25;1.05;;;0.40;;
18048;SDS011;9149;47.002;8.604;2023-09-19T12:54:52;0.50;;;0.40;;
18048;SDS011;9149;47.002;8.604;2023-09-19T12:57:23;0.30;;;0.30;;
18048;SDS011;9149;47.002;8.604;2023-09-19T12:59:52;3.20;;;0.50;;
18048;SDS011;9149;47.002;8.604;2023-09-19T13:02:20;2.33;;;0.43;;
18048;SDS011;9149;47.002;8.604;2023-09-19T13:04:53;0.85;;;0.30;;
18048;SDS011;9149;47.002;8.604;2023-09-19T13:10:05;0.73;;;0.30;;
18048;SDS011;9149;47.002;8.604;2023-09-19T13:12:36;2.08;;;0.40;;
18048;SDS011;9149;47.002;8.604;2023-09-19T13:15:08;0.60;;;0.40;;
18048;SDS011;9149;47.002;8.604;2023-09-19T13:17:44;1.95;;;0.40;;
18048;SDS011;9149;47.002;8.604;2023-09-19T13:22:55;0.65;;;0.25;;
18048;SDS011;9149;47.002;8.604;2023-09-19T13:25:27;0.20;;;0.20;;
18048;SDS011;9149;47.002;8.604;2023-09-19T13:27:57;0.73;;;0.28;;
18048;SDS011;9149;47.002;8.604;2023-09-19T13:30:26;1.65;;;0.47;;
18048;SDS011;9149;47.002;8.604;2023-09-19T13:33:04;1.52;;;0.45;;
18048;SDS011;9149;47.002;8.604;2023-09-19T13:35:32;1.02;;;0.40;;
18048;SDS011;9149;47.002;8.604;2023-09-19T13:38:20;2.20;;;0.70;;
18048;SDS011;9149;47.002;8.604;2023-09-19T13:40:48;1.13;;;0.40;;
18048;SDS011;9149;47.002;8.604;2023-09-19T13:43:19;1.05;;;0.40;;
18048;SDS011;9149;47.002;8.604;2023-09-19T13:45:48;1.35;;;0.50;;
18048;SDS011;9149;47.002;8.604;2023-09-19T13:48:16;0.45;;;0.32;;
18048;SDS011;9149;47.002;8.604;2023-09-19T13:50:48;0.38;;;0.30;;
18048;SDS011;9149;47.002;8.604;2023-09-19T13:53:16;0.70;;;0.47;;
18048;SDS011;9149;47.002;8.604;2023-09-19T13:55:45;2.58;;;0.40;;
18048;SDS011;9149;47.002;8.604;2023-09-19T13:58:15;0.73;;;0.45;;
18048;SDS011;9149;47.002;8.604;2023-09-19T14:00:42;0.20;;;0.20;;
18048;SDS011;9149;47.002;8.604;2023-09-19T14:03:10;2.97;;;0.55;;
18048;SDS011;9149;47.002;8.604;2023-09-19T14:05:38;1.58;;;0.50;;
18048;SDS011;9149;47.002;8.604;2023-09-19T14:08:06;0.65;;;0.40;;
18048;SDS011;9149;47.002;8.604;2023-09-19T14:10:33;0.85;;;0.40;;
18048;SDS011;9149;47.002;8.604;2023-09-19T14:13:02;0.30;;;0.30;;
18048;SDS011;9149;47.002;8.604;2023-09-19T14:15:31;1.65;;;0.30;;
18048;SDS011;9149;47.002;8.604;2023-09-19T14:17:59;2.30;;;0.40;;
18048;SDS011;9149;47.002;8.604;2023-09-19T14:20:27;1.38;;;0.55;;
18048;SDS011;9149;47.002;8.604;2023-09-19T14:22:55;3.83;;;0.32;;
18048;SDS011;9149;47.002;8.604;2023-09-19T14:25:25;2.78;;;0.60;;
18048;SDS011;9149;47.002;8.604;2023-09-19T14:27:52;0.77;;;0.30;;
18048;SDS011;9149;47.002;8.604;2023-09-19T14:30:21;0.73;;;0.40;;
18048;SDS011;9149;47.002;8.604;2023-09-19T14:32:50;0.80;;;0.40;;
18048;SDS011;9149;47.002;8.604;2023-09-19T14:35:18;3.75;;;0.50;;
18048;SDS011;9149;47.002;8.604;2023-09-19T14:37:46;1.75;;;0.47;;
18048;SDS011;9149;47.002;8.604;2023-09-19T14:40:13;0.40;;;0.40;;
18048;SDS011;9149;47.002;8.604;2023-09-19T14:42:43;1.65;;;0.40;;
18048;SDS011;9149;47.002;8.604;2023-09-19T14:45:11;0.80;;;0.30;;
18048;SDS011;9149;47.002;8.604;2023-09-19T14:47:42;0.50;;;0.40;;
18048;SDS011;9149;47.002;8.604;2023-09-19T14:50:10;0.40;;;0.40;;
18048;SDS011;9149;47.002;8.604;2023-09-19T14:52:39;0.63;;;0.43;;
18048;SDS011;9149;47.002;8.604;2023-09-19T14:55:07;0.40;;;0.32;;
18048;SDS011;9149;47.002;8.604;2023-09-19T14:57:38;0.50;;;0.30;;
18048;SDS011;9149;47.002;8.604;2023-09-19T15:00:06;0.40;;;0.40;;
18048;SDS011;9149;47.002;8.604;2023-09-19T15:02:38;0.82;;;0.38;;
18048;SDS011;9149;47.002;8.604;2023-09-19T15:05:08;0.38;;;0.30;;
18048;SDS011;9149;47.002;8.604;2023-09-19T15:07:38;0.30;;;0.30;;
18048;SDS011;9149;47.002;8.604;2023-09-19T15:10:07;0.73;;;0.50;;
18048;SDS011;9149;47.002;8.604;2023-09-19T15:12:36;2.15;;;0.40;;
18048;SDS011;9149;47.002;8.604;2023-09-19T15:15:04;0.82;;;0.50;;
18048;SDS011;9149;47.002;8.604;2023-09-19T15:17:33;0.40;;;0.30;;
18048;SDS011;9149;47.002;8.604;2023-09-19T15:20:01;1.45;;;0.30;;
18048;SDS011;9149;47.002;8.604;2023-09-19T15:22:34;0.82;;;0.50;;
18048;SDS011;9149;47.002;8.604;2023-09-19T15:25:02;0.70;;;0.50;;
18048;SDS011;9149;47.002;8.604;2023-09-19T15:27:30;1.05;;;0.60;;
18048;SDS011;9149;47.002;8.604;2023-09-19T15:29:58;0.77;;;0.40;;
18048;SDS011;9149;47.002;8.604;2023-09-19T15:32:26;0.40;;;0.40;;
18048;SDS011;9149;47.002;8.604;2023-09-19T15:34:54;0.63;;;0.45;;
18048;SDS011;9149;47.002;8.604;2023-09-19T15:37:22;0.60;;;0.50;;
18048;SDS011;9149;47.002;8.604;2023-09-19T15:39:53;0.95;;;0.47;;
18048;SDS011;9149;47.002;8.604;2023-09-19T15:42:21;0.40;;;0.40;;
18048;SDS011;9149;47.002;8.604;2023-09-19T15:44:48;1.65;;;0.60;;
18048;SDS011;9149;47.002;8.604;2023-09-19T15:47:17;0.70;;;0.45;;
18048;SDS011;9149;47.002;8.604;2023-09-19T15:49:46;0.70;;;0.55;;
18048;SDS011;9149;47.002;8.604;2023-09-19T15:52:16;2.25;;;0.43;;
18048;SDS011;9149;47.002;8.604;2023-09-19T15:54:44;0.77;;;0.40;;